sensor_id;sensor_type;location;lat;lon;timestamp;temperature;humidity
74488;DHT22;63019;51.080;13.642;2023-07-30T00:00:30;18.00;99.90
74488;DHT22;63019;51.080;13.642;2023-07-30T00:01:32;18.00;99.90
74488;DHT22;63019;51.080;13.642;2023-07-30T00:02:35;18.00;99.90
74488;DHT22;63019;51.080;13.642;2023-07-30T00:03:37;18.00;99.90
74488;DHT22;63019;51.080;13.642;2023-07-30T00:04:39;18.00;99.90
74488;DHT22;63019;51.080;13.642;2023-07-30T00:05:41;18.00;99.90
74488;DHT22;63019;51.080;13.642;2023-07-30T00:06:43;18.00;99.90
74488;DHT22;63019;51.080;13.642;2023-07-30T00:07:44;18.10;99.90
74488;DHT22;63019;51.080;13.642;2023-07-30T00:08:46;18.10;99.90
74488;DHT22;63019;51.080;13.642;2023-07-30T00:09:48;18.10;99.90
74488;DHT22;63019;51.080;13.642;2023-07-30T00:10:50;18.10;99.90
74488;DHT22;63019;51.080;13.642;2023-07-30T00:11:52;18.10;99.90
74488;DHT22;63019;51.080;13.642;2023-07-30T00:12:54;18.10;99.90
74488;DHT22;63019;51.080;13.642;2023-07-30T00:13:55;18.10;99.90
74488;DHT22;63019;51.080;13.642;2023-07-30T00:14:57;18.10;99.90
74488;DHT22;63019;51.080;13.642;2023-07-30T00:15:59;18.10;99.90
74488;DHT22;63019;51.080;13.642;2023-07-30T00:17:01;18.00;99.90
74488;DHT22;63019;51.080;13.642;2023-07-30T00:18:03;18.00;99.90
74488;DHT22;63019;51.080;13.642;2023-07-30T00:19:05;17.90;99.90
74488;DHT22;63019;51.080;13.642;2023-07-30T00:20:08;17.90;99.90
74488;DHT22;63019;51.080;13.642;2023-07-30T00:21:10;17.90;99.90
74488;DHT22;63019;51.080;13.642;2023-07-30T00:22:12;17.90;99.90
74488;DHT22;63019;51.080;13.642;2023-07-30T00:23:14;17.80;99.90
74488;DHT22;63019;51.080;13.642;2023-07-30T00:24:16;17.80;99.90
74488;DHT22;63019;51.080;13.642;2023-07-30T00:25:18;17.80;99.90
74488;DHT22;63019;51.080;13.642;2023-07-30T00:26:19;17.80;99.90
74488;DHT22;63019;51.080;13.642;2023-07-30T00:27:21;17.80;99.90
74488;DHT22;63019;51.080;13.642;2023-07-30T00:28:24;17.70;99.90
74488;DHT22;63019;51.080;13.642;2023-07-30T00:29:26;17.70;99.90
74488;DHT22;63019;51.080;13.642;2023-07-30T00:30:28;17.70;99.90
74488;DHT22;63019;51.080;13.642;2023-07-30T00:31:30;17.70;99.90
74488;DHT22;63019;51.080;13.642;2023-07-30T00:32:32;17.70;99.90
74488;DHT22;63019;51.080;13.642;2023-07-30T00:33:34;17.70;99.90
74488;DHT22;63019;51.080;13.642;2023-07-30T00:34:36;17.70;99.90
74488;DHT22;63019;51.080;13.642;2023-07-30T00:35:38;17.60;99.90
74488;DHT22;63019;51.080;13.642;2023-07-30T00:36:40;17.60;99.90
74488;DHT22;63019;51.080;13.642;2023-07-30T00:37:42;17.60;99.90
74488;DHT22;63019;51.080;13.642;2023-07-30T00:38:43;17.60;99.90
74488;DHT22;63019;51.080;13.642;2023-07-30T00:39:46;17.60;99.90
74488;DHT22;63019;51.080;13.642;2023-07-30T00:40:47;17.60;99.90
74488;DHT22;63019;51.080;13.642;2023-07-30T00:41:49;17.60;99.90
74488;DHT22;63019;51.080;13.642;2023-07-30T00:42:52;17.50;99.90
74488;DHT22;63019;51.080;13.642;2023-07-30T00:43:54;17.50;99.90
74488;DHT22;63019;51.080;13.642;2023-07-30T00:44:56;17.50;99.90
74488;DHT22;63019;51.080;13.642;2023-07-30T00:45:58;17.50;99.90
74488;DHT22;63019;51.080;13.642;2023-07-30T00:47:00;17.50;99.90
74488;DHT22;63019;51.080;13.642;2023-07-30T00:48:02;17.40;99.90
74488;DHT22;63019;51.080;13.642;2023-07-30T00:49:04;17.40;99.90
74488;DHT22;63019;51.080;13.642;2023-07-30T00:50:07;17.40;99.90
74488;DHT22;63019;51.080;13.642;2023-07-30T00:51:12;17.40;99.90
74488;DHT22;63019;51.080;13.642;2023-07-30T00:52:20;17.40;99.90
74488;DHT22;63019;51.080;13.642;2023-07-30T00:53:31;17.30;99.90
74488;DHT22;63019;51.080;13.642;2023-07-30T00:54:33;17.30;99.90
74488;DHT22;63019;51.080;13.642;2023-07-30T00:55:35;17.30;99.90
74488;DHT22;63019;51.080;13.642;2023-07-30T00:56:38;17.30;99.90
74488;DHT22;63019;51.080;13.642;2023-07-30T00:57:44;17.20;99.90
74488;DHT22;63019;51.080;13.642;2023-07-30T00:58:48;17.20;99.90
74488;DHT22;63019;51.080;13.642;2023-07-30T00:59:51;17.10;99.90
74488;DHT22;63019;51.080;13.642;2023-07-30T01:00:54;17.10;99.90
74488;DHT22;63019;51.080;13.642;2023-07-30T01:01:57;17.10;99.90
74488;DHT22;63019;51.080;13.642;2023-07-30T01:03:01;17.00;99.90
74488;DHT22;63019;51.080;13.642;2023-07-30T01:04:03;16.90;99.90
74488;DHT22;63019;51.080;13.642;2023-07-30T01:05:06;16.90;99.90
74488;DHT22;63019;51.080;13.642;2023-07-30T01:06:08;16.90;99.90
74488;DHT22;63019;51.080;13.642;2023-07-30T01:07:09;16.90;99.90
74488;DHT22;63019;51.080;13.642;2023-07-30T01:08:11;16.90;99.90
74488;DHT22;63019;51.080;13.642;2023-07-30T01:09:16;16.90;99.90
74488;DHT22;63019;51.080;13.642;2023-07-30T01:10:18;16.80;99.90
74488;DHT22;63019;51.080;13.642;2023-07-30T01:11:21;16.80;99.90
74488;DHT22;63019;51.080;13.642;2023-07-30T01:12:23;16.80;99.90
74488;DHT22;63019;51.080;13.642;2023-07-30T01:13:26;16.80;99.90
74488;DHT22;63019;51.080;13.642;2023-07-30T01:14:29;16.80;99.90
74488;DHT22;63019;51.080;13.642;2023-07-30T01:15:31;16.70;99.90
74488;DHT22;63019;51.080;13.642;2023-07-30T01:16:34;16.70;99.90
74488;DHT22;63019;51.080;13.642;2023-07-30T01:17:36;16.80;99.90
74488;DHT22;63019;51.080;13.642;2023-07-30T01:18:38;16.80;99.90
74488;DHT22;63019;51.080;13.642;2023-07-30T01:19:40;16.80;99.90
74488;DHT22;63019;51.080;13.642;2023-07-30T01:20:42;16.70;99.90
74488;DHT22;63019;51.080;13.642;2023-07-30T01:21:44;16.70;99.90
74488;DHT22;63019;51.080;13.642;2023-07-30T01:22:45;16.70;99.90
74488;DHT22;63019;51.080;13.642;2023-07-30T01:23:47;16.70;99.90
74488;DHT22;63019;51.080;13.642;2023-07-30T01:24:50;16.60;99.90
74488;DHT22;63019;51.080;13.642;2023-07-30T01:26:14;16.70;99.90
74488;DHT22;63019;51.080;13.642;2023-07-30T01:27:30;16.60;99.90
74488;DHT22;63019;51.080;13.642;2023-07-30T01:28:37;16.60;99.90
74488;DHT22;63019;51.080;13.642;2023-07-30T01:29:53;16.60;99.90
74488;DHT22;63019;51.080;13.642;2023-07-30T01:30:57;16.60;99.90
74488;DHT22;63019;51.080;13.642;2023-07-30T01:32:04;16.60;99.90
74488;DHT22;63019;51.080;13.642;2023-07-30T01:33:08;16.60;99.90
74488;DHT22;63019;51.080;13.642;2023-07-30T01:34:11;16.60;99.90
74488;DHT22;63019;51.080;13.642;2023-07-30T01:35:14;16.60;99.90
74488;DHT22;63019;51.080;13.642;2023-07-30T01:36:17;16.60;99.90
74488;DHT22;63019;51.080;13.642;2023-07-30T01:37:20;16.60;99.90
74488;DHT22;63019;51.080;13.642;2023-07-30T01:38:22;16.60;99.90
74488;DHT22;63019;51.080;13.642;2023-07-30T01:39:25;16.60;99.90
74488;DHT22;63019;51.080;13.642;2023-07-30T01:40:27;16.60;99.90
74488;DHT22;63019;51.080;13.642;2023-07-30T01:41:29;16.50;99.90
74488;DHT22;63019;51.080;13.642;2023-07-30T01:42:31;16.50;99.90
74488;DHT22;63019;51.080;13.642;2023-07-30T01:43:32;16.50;99.90
74488;DHT22;63019;51.080;13.642;2023-07-30T01:44:34;16.40;99.90
74488;DHT22;63019;51.080;13.642;2023-07-30T01:45:36;16.40;99.90
74488;DHT22;63019;51.080;13.642;2023-07-30T01:46:41;16.30;99.90
74488;DHT22;63019;51.080;13.642;2023-07-30T01:47:44;16.30;99.90
74488;DHT22;63019;51.080;13.642;2023-07-30T01:48:48;16.30;99.90
74488;DHT22;63019;51.080;13.642;2023-07-30T01:49:51;16.20;99.90
74488;DHT22;63019;51.080;13.642;2023-07-30T01:50:53;16.20;99.90
74488;DHT22;63019;51.080;13.642;2023-07-30T01:51:54;16.20;99.90
74488;DHT22;63019;51.080;13.642;2023-07-30T01:52:56;16.20;99.90
74488;DHT22;63019;51.080;13.642;2023-07-30T01:53:58;16.20;99.90
74488;DHT22;63019;51.080;13.642;2023-07-30T01:55:00;16.30;99.90
74488;DHT22;63019;51.080;13.642;2023-07-30T01:56:02;16.30;99.90
74488;DHT22;63019;51.080;13.642;2023-07-30T01:57:04;16.30;99.90
74488;DHT22;63019;51.080;13.642;2023-07-30T01:58:06;16.30;99.90
74488;DHT22;63019;51.080;13.642;2023-07-30T01:59:08;16.30;99.90
74488;DHT22;63019;51.080;13.642;2023-07-30T02:00:10;16.30;99.90
74488;DHT22;63019;51.080;13.642;2023-07-30T02:01:12;16.30;99.90
74488;DHT22;63019;51.080;13.642;2023-07-30T02:02:14;16.30;99.90
74488;DHT22;63019;51.080;13.642;2023-07-30T02:03:16;16.30;99.90
74488;DHT22;63019;51.080;13.642;2023-07-30T02:04:18;16.40;99.90
74488;DHT22;63019;51.080;13.642;2023-07-30T02:05:20;16.40;99.90
74488;DHT22;63019;51.080;13.642;2023-07-30T02:06:22;16.40;99.90
74488;DHT22;63019;51.080;13.642;2023-07-30T02:07:24;16.40;99.90
74488;DHT22;63019;51.080;13.642;2023-07-30T02:08:25;16.40;99.90
74488;DHT22;63019;51.080;13.642;2023-07-30T02:09:27;16.30;99.90
74488;DHT22;63019;51.080;13.642;2023-07-30T02:10:29;16.40;99.90
74488;DHT22;63019;51.080;13.642;2023-07-30T02:11:31;16.30;99.90
74488;DHT22;63019;51.080;13.642;2023-07-30T02:12:33;16.30;99.90
74488;DHT22;63019;51.080;13.642;2023-07-30T02:13:34;16.30;99.90
74488;DHT22;63019;51.080;13.642;2023-07-30T02:14:36;16.30;99.90
74488;DHT22;63019;51.080;13.642;2023-07-30T02:15:41;16.20;99.90
74488;DHT22;63019;51.080;13.642;2023-07-30T02:16:44;16.20;99.90
74488;DHT22;63019;51.080;13.642;2023-07-30T02:17:46;16.20;99.90
74488;DHT22;63019;51.080;13.642;2023-07-30T02:18:48;16.20;99.90
74488;DHT22;63019;51.080;13.642;2023-07-30T02:19:49;16.10;99.90
74488;DHT22;63019;51.080;13.642;2023-07-30T02:20:51;16.10;99.90
74488;DHT22;63019;51.080;13.642;2023-07-30T02:21:53;16.10;99.90
74488;DHT22;63019;51.080;13.642;2023-07-30T02:22:55;16.20;99.90
74488;DHT22;63019;51.080;13.642;2023-07-30T02:23:57;16.10;99.90
74488;DHT22;63019;51.080;13.642;2023-07-30T02:24:59;16.10;99.90
74488;DHT22;63019;51.080;13.642;2023-07-30T02:26:01;16.10;99.90
74488;DHT22;63019;51.080;13.642;2023-07-30T02:27:03;16.10;99.90
74488;DHT22;63019;51.080;13.642;2023-07-30T02:28:05;16.10;99.90
74488;DHT22;63019;51.080;13.642;2023-07-30T02:29:07;16.10;99.90
74488;DHT22;63019;51.080;13.642;2023-07-30T02:30:09;16.10;99.90
74488;DHT22;63019;51.080;13.642;2023-07-30T02:31:11;16.10;99.90
74488;DHT22;63019;51.080;13.642;2023-07-30T02:32:13;16.10;99.90
74488;DHT22;63019;51.080;13.642;2023-07-30T02:33:15;16.10;99.90
74488;DHT22;63019;51.080;13.642;2023-07-30T02:34:16;16.10;99.90
74488;DHT22;63019;51.080;13.642;2023-07-30T02:35:18;16.10;99.90
74488;DHT22;63019;51.080;13.642;2023-07-30T02:36:20;16.10;99.90
74488;DHT22;63019;51.080;13.642;2023-07-30T02:37:22;16.10;99.90
74488;DHT22;63019;51.080;13.642;2023-07-30T02:38:24;16.10;99.90
74488;DHT22;63019;51.080;13.642;2023-07-30T02:39:25;16.10;99.90
74488;DHT22;63019;51.080;13.642;2023-07-30T02:40:27;16.10;99.90
74488;DHT22;63019;51.080;13.642;2023-07-30T02:41:29;16.10;99.90
74488;DHT22;63019;51.080;13.642;2023-07-30T02:42:31;16.10;99.90
74488;DHT22;63019;51.080;13.642;2023-07-30T02:43:33;16.10;99.90
74488;DHT22;63019;51.080;13.642;2023-07-30T02:44:35;16.10;99.90
74488;DHT22;63019;51.080;13.642;2023-07-30T02:45:38;16.10;99.90
74488;DHT22;63019;51.080;13.642;2023-07-30T02:46:40;16.20;99.90
74488;DHT22;63019;51.080;13.642;2023-07-30T02:47:42;16.20;99.90
74488;DHT22;63019;51.080;13.642;2023-07-30T02:48:44;16.10;99.90
74488;DHT22;63019;51.080;13.642;2023-07-30T02:49:45;16.20;99.90
74488;DHT22;63019;51.080;13.642;2023-07-30T02:50:47;16.20;99.90
74488;DHT22;63019;51.080;13.642;2023-07-30T02:51:49;16.20;99.90
74488;DHT22;63019;51.080;13.642;2023-07-30T02:52:51;16.20;99.90
74488;DHT22;63019;51.080;13.642;2023-07-30T02:53:57;16.20;99.90
74488;DHT22;63019;51.080;13.642;2023-07-30T02:55:01;16.20;99.90
74488;DHT22;63019;51.080;13.642;2023-07-30T02:56:03;16.20;99.90
74488;DHT22;63019;51.080;13.642;2023-07-30T02:57:05;16.30;99.90
74488;DHT22;63019;51.080;13.642;2023-07-30T02:58:07;16.30;99.90
74488;DHT22;63019;51.080;13.642;2023-07-30T02:59:09;16.30;99.90
74488;DHT22;63019;51.080;13.642;2023-07-30T03:00:11;16.40;99.90
74488;DHT22;63019;51.080;13.642;2023-07-30T03:01:13;16.40;99.90
74488;DHT22;63019;51.080;13.642;2023-07-30T03:02:15;16.30;99.90
74488;DHT22;63019;51.080;13.642;2023-07-30T03:03:17;16.40;99.90
74488;DHT22;63019;51.080;13.642;2023-07-30T03:04:19;16.40;99.90
74488;DHT22;63019;51.080;13.642;2023-07-30T03:05:21;16.40;99.90
74488;DHT22;63019;51.080;13.642;2023-07-30T03:06:23;16.40;99.90
74488;DHT22;63019;51.080;13.642;2023-07-30T03:07:25;16.30;99.90
74488;DHT22;63019;51.080;13.642;2023-07-30T03:08:27;16.30;99.90
74488;DHT22;63019;51.080;13.642;2023-07-30T03:09:28;16.30;99.90
74488;DHT22;63019;51.080;13.642;2023-07-30T03:10:30;16.40;99.90
74488;DHT22;63019;51.080;13.642;2023-07-30T03:11:32;16.30;99.90
74488;DHT22;63019;51.080;13.642;2023-07-30T03:12:34;16.30;99.90
74488;DHT22;63019;51.080;13.642;2023-07-30T03:13:36;16.30;99.90
74488;DHT22;63019;51.080;13.642;2023-07-30T03:14:38;16.30;99.90
74488;DHT22;63019;51.080;13.642;2023-07-30T03:15:40;16.30;99.90
74488;DHT22;63019;51.080;13.642;2023-07-30T03:16:41;16.30;99.90
74488;DHT22;63019;51.080;13.642;2023-07-30T03:17:43;16.30;99.90
74488;DHT22;63019;51.080;13.642;2023-07-30T03:18:45;16.30;99.90
74488;DHT22;63019;51.080;13.642;2023-07-30T03:19:47;16.30;99.90
74488;DHT22;63019;51.080;13.642;2023-07-30T03:20:49;16.30;99.90
74488;DHT22;63019;51.080;13.642;2023-07-30T03:21:51;16.30;99.90
74488;DHT22;63019;51.080;13.642;2023-07-30T03:22:53;16.20;99.90
74488;DHT22;63019;51.080;13.642;2023-07-30T03:23:55;16.30;99.90
74488;DHT22;63019;51.080;13.642;2023-07-30T03:24:57;16.20;99.90
74488;DHT22;63019;51.080;13.642;2023-07-30T03:25:59;16.20;99.90
74488;DHT22;63019;51.080;13.642;2023-07-30T03:27:02;16.20;99.90
74488;DHT22;63019;51.080;13.642;2023-07-30T03:28:04;16.20;99.90
74488;DHT22;63019;51.080;13.642;2023-07-30T03:29:06;16.20;99.90
74488;DHT22;63019;51.080;13.642;2023-07-30T03:30:08;16.20;99.90
74488;DHT22;63019;51.080;13.642;2023-07-30T03:31:10;16.20;99.90
74488;DHT22;63019;51.080;13.642;2023-07-30T03:32:13;16.30;99.90
74488;DHT22;63019;51.080;13.642;2023-07-30T03:33:14;16.20;99.90
74488;DHT22;63019;51.080;13.642;2023-07-30T03:34:16;16.20;99.90
74488;DHT22;63019;51.080;13.642;2023-07-30T03:35:18;16.30;99.90
74488;DHT22;63019;51.080;13.642;2023-07-30T03:36:20;16.30;99.90
74488;DHT22;63019;51.080;13.642;2023-07-30T03:37:22;16.30;99.90
74488;DHT22;63019;51.080;13.642;2023-07-30T03:38:24;16.40;99.90
74488;DHT22;63019;51.080;13.642;2023-07-30T03:39:26;16.30;99.90
74488;DHT22;63019;51.080;13.642;2023-07-30T03:40:28;16.40;99.90
74488;DHT22;63019;51.080;13.642;2023-07-30T03:41:30;16.40;99.90
74488;DHT22;63019;51.080;13.642;2023-07-30T03:42:32;16.40;99.90
74488;DHT22;63019;51.080;13.642;2023-07-30T03:43:35;16.40;99.90
74488;DHT22;63019;51.080;13.642;2023-07-30T03:44:36;16.40;99.90
74488;DHT22;63019;51.080;13.642;2023-07-30T03:45:38;16.40;99.90
74488;DHT22;63019;51.080;13.642;2023-07-30T03:46:40;16.40;99.90
74488;DHT22;63019;51.080;13.642;2023-07-30T03:47:42;16.40;99.90
74488;DHT22;63019;51.080;13.642;2023-07-30T03:48:44;16.40;99.90
74488;DHT22;63019;51.080;13.642;2023-07-30T03:49:46;16.40;99.90
74488;DHT22;63019;51.080;13.642;2023-07-30T03:50:48;16.50;99.90
74488;DHT22;63019;51.080;13.642;2023-07-30T03:51:49;16.40;99.90
74488;DHT22;63019;51.080;13.642;2023-07-30T03:52:51;16.50;99.90
74488;DHT22;63019;51.080;13.642;2023-07-30T03:53:53;16.50;99.90
74488;DHT22;63019;51.080;13.642;2023-07-30T03:54:55;16.50;99.90
74488;DHT22;63019;51.080;13.642;2023-07-30T03:55:57;16.60;99.90
74488;DHT22;63019;51.080;13.642;2023-07-30T03:56:59;16.60;99.90
74488;DHT22;63019;51.080;13.642;2023-07-30T03:58:00;16.60;99.90
74488;DHT22;63019;51.080;13.642;2023-07-30T03:59:02;16.60;99.90
74488;DHT22;63019;51.080;13.642;2023-07-30T04:00:05;16.60;99.90
74488;DHT22;63019;51.080;13.642;2023-07-30T04:01:10;16.60;99.90
74488;DHT22;63019;51.080;13.642;2023-07-30T04:02:13;16.60;99.90
74488;DHT22;63019;51.080;13.642;2023-07-30T04:03:17;16.60;99.90
74488;DHT22;63019;51.080;13.642;2023-07-30T04:04:20;16.60;99.90
74488;DHT22;63019;51.080;13.642;2023-07-30T04:05:22;16.60;99.90
74488;DHT22;63019;51.080;13.642;2023-07-30T04:06:24;16.60;99.90
74488;DHT22;63019;51.080;13.642;2023-07-30T04:07:25;16.60;99.90
74488;DHT22;63019;51.080;13.642;2023-07-30T04:08:27;16.60;99.90
74488;DHT22;63019;51.080;13.642;2023-07-30T04:09:29;16.60;99.90
74488;DHT22;63019;51.080;13.642;2023-07-30T04:10:31;16.60;99.90
74488;DHT22;63019;51.080;13.642;2023-07-30T04:11:33;16.60;99.90
74488;DHT22;63019;51.080;13.642;2023-07-30T04:12:35;16.60;99.90
74488;DHT22;63019;51.080;13.642;2023-07-30T04:13:37;16.60;99.90
74488;DHT22;63019;51.080;13.642;2023-07-30T04:14:39;16.60;99.90
74488;DHT22;63019;51.080;13.642;2023-07-30T04:15:41;16.60;99.90
74488;DHT22;63019;51.080;13.642;2023-07-30T04:16:42;16.60;99.90
74488;DHT22;63019;51.080;13.642;2023-07-30T04:17:48;16.60;99.90
74488;DHT22;63019;51.080;13.642;2023-07-30T04:18:50;16.70;99.90
74488;DHT22;63019;51.080;13.642;2023-07-30T04:19:53;16.70;99.90
74488;DHT22;63019;51.080;13.642;2023-07-30T04:20:55;16.70;99.90
74488;DHT22;63019;51.080;13.642;2023-07-30T04:22:00;16.70;99.90
74488;DHT22;63019;51.080;13.642;2023-07-30T04:23:02;16.70;99.90
74488;DHT22;63019;51.080;13.642;2023-07-30T04:24:04;16.80;99.90
74488;DHT22;63019;51.080;13.642;2023-07-30T04:25:06;16.80;99.90
74488;DHT22;63019;51.080;13.642;2023-07-30T04:26:09;16.80;99.90
74488;DHT22;63019;51.080;13.642;2023-07-30T04:27:10;16.80;99.90
74488;DHT22;63019;51.080;13.642;2023-07-30T04:28:12;16.70;99.90
74488;DHT22;63019;51.080;13.642;2023-07-30T04:29:14;16.80;99.90
74488;DHT22;63019;51.080;13.642;2023-07-30T04:30:19;16.80;99.90
74488;DHT22;63019;51.080;13.642;2023-07-30T04:31:21;16.70;99.90
74488;DHT22;63019;51.080;13.642;2023-07-30T04:32:23;16.70;99.90
74488;DHT22;63019;51.080;13.642;2023-07-30T04:33:25;16.70;99.90
74488;DHT22;63019;51.080;13.642;2023-07-30T04:34:28;16.70;99.90
74488;DHT22;63019;51.080;13.642;2023-07-30T04:35:29;16.70;99.90
74488;DHT22;63019;51.080;13.642;2023-07-30T04:36:31;16.70;99.90
74488;DHT22;63019;51.080;13.642;2023-07-30T04:37:33;16.70;99.90
74488;DHT22;63019;51.080;13.642;2023-07-30T04:38:35;16.70;99.90
74488;DHT22;63019;51.080;13.642;2023-07-30T04:39:38;16.70;99.90
74488;DHT22;63019;51.080;13.642;2023-07-30T04:40:39;16.80;99.90
74488;DHT22;63019;51.080;13.642;2023-07-30T04:41:41;16.70;99.90
74488;DHT22;63019;51.080;13.642;2023-07-30T04:42:44;16.70;99.90
74488;DHT22;63019;51.080;13.642;2023-07-30T04:43:46;16.70;99.90
74488;DHT22;63019;51.080;13.642;2023-07-30T04:44:48;16.70;99.90
74488;DHT22;63019;51.080;13.642;2023-07-30T04:45:50;16.70;99.90
74488;DHT22;63019;51.080;13.642;2023-07-30T04:46:52;16.70;99.90
74488;DHT22;63019;51.080;13.642;2023-07-30T04:47:53;16.70;99.90
74488;DHT22;63019;51.080;13.642;2023-07-30T04:48:55;16.70;99.90
74488;DHT22;63019;51.080;13.642;2023-07-30T04:49:57;16.70;99.90
74488;DHT22;63019;51.080;13.642;2023-07-30T04:50:59;16.80;99.90
74488;DHT22;63019;51.080;13.642;2023-07-30T04:52:01;16.80;99.90
74488;DHT22;63019;51.080;13.642;2023-07-30T04:53:03;16.80;99.90
74488;DHT22;63019;51.080;13.642;2023-07-30T04:54:05;16.80;99.90
74488;DHT22;63019;51.080;13.642;2023-07-30T04:55:07;16.80;99.90
74488;DHT22;63019;51.080;13.642;2023-07-30T04:56:09;16.90;99.90
74488;DHT22;63019;51.080;13.642;2023-07-30T04:57:11;16.90;99.90
74488;DHT22;63019;51.080;13.642;2023-07-30T04:58:13;16.90;99.90
74488;DHT22;63019;51.080;13.642;2023-07-30T04:59:15;16.90;99.90
74488;DHT22;63019;51.080;13.642;2023-07-30T05:00:16;16.90;99.90
74488;DHT22;63019;51.080;13.642;2023-07-30T05:01:18;17.00;99.90
74488;DHT22;63019;51.080;13.642;2023-07-30T05:02:20;17.00;99.90
74488;DHT22;63019;51.080;13.642;2023-07-30T05:03:22;17.00;99.90
74488;DHT22;63019;51.080;13.642;2023-07-30T05:04:24;17.00;99.90
74488;DHT22;63019;51.080;13.642;2023-07-30T05:05:26;17.00;99.90
74488;DHT22;63019;51.080;13.642;2023-07-30T05:06:28;17.10;99.90
74488;DHT22;63019;51.080;13.642;2023-07-30T05:07:31;17.10;99.90
74488;DHT22;63019;51.080;13.642;2023-07-30T05:08:32;17.20;99.90
74488;DHT22;63019;51.080;13.642;2023-07-30T05:09:34;17.20;99.90
74488;DHT22;63019;51.080;13.642;2023-07-30T05:10:36;17.30;99.90
74488;DHT22;63019;51.080;13.642;2023-07-30T05:11:41;17.30;99.90
74488;DHT22;63019;51.080;13.642;2023-07-30T05:12:43;17.40;99.90
74488;DHT22;63019;51.080;13.642;2023-07-30T05:13:44;17.40;99.90
74488;DHT22;63019;51.080;13.642;2023-07-30T05:14:46;17.50;99.90
74488;DHT22;63019;51.080;13.642;2023-07-30T05:15:48;17.50;99.90
74488;DHT22;63019;51.080;13.642;2023-07-30T05:16:50;17.50;99.90
74488;DHT22;63019;51.080;13.642;2023-07-30T05:17:52;17.50;99.90
74488;DHT22;63019;51.080;13.642;2023-07-30T05:18:55;17.50;99.90
74488;DHT22;63019;51.080;13.642;2023-07-30T05:19:57;17.50;99.90
74488;DHT22;63019;51.080;13.642;2023-07-30T05:20:59;17.50;99.90
74488;DHT22;63019;51.080;13.642;2023-07-30T05:22:00;17.50;99.90
74488;DHT22;63019;51.080;13.642;2023-07-30T05:23:03;17.50;99.90
74488;DHT22;63019;51.080;13.642;2023-07-30T05:24:06;17.60;99.90
74488;DHT22;63019;51.080;13.642;2023-07-30T05:25:08;17.60;99.90
74488;DHT22;63019;51.080;13.642;2023-07-30T05:26:11;17.60;99.90
74488;DHT22;63019;51.080;13.642;2023-07-30T05:27:13;17.60;99.90
74488;DHT22;63019;51.080;13.642;2023-07-30T05:28:15;17.60;99.90
74488;DHT22;63019;51.080;13.642;2023-07-30T05:29:17;17.70;99.90
74488;DHT22;63019;51.080;13.642;2023-07-30T05:30:19;17.70;99.90
74488;DHT22;63019;51.080;13.642;2023-07-30T05:31:21;17.70;99.90
74488;DHT22;63019;51.080;13.642;2023-07-30T05:32:23;17.70;99.90
74488;DHT22;63019;51.080;13.642;2023-07-30T05:33:25;17.70;99.90
74488;DHT22;63019;51.080;13.642;2023-07-30T05:34:27;17.70;99.90
74488;DHT22;63019;51.080;13.642;2023-07-30T05:35:28;17.70;99.90
74488;DHT22;63019;51.080;13.642;2023-07-30T05:36:33;17.70;99.90
74488;DHT22;63019;51.080;13.642;2023-07-30T05:37:35;17.80;99.90
74488;DHT22;63019;51.080;13.642;2023-07-30T05:38:37;17.80;99.90
74488;DHT22;63019;51.080;13.642;2023-07-30T05:39:39;17.90;99.90
74488;DHT22;63019;51.080;13.642;2023-07-30T05:40:41;17.90;99.90
74488;DHT22;63019;51.080;13.642;2023-07-30T05:41:43;17.90;99.90
74488;DHT22;63019;51.080;13.642;2023-07-30T05:42:45;17.90;99.90
74488;DHT22;63019;51.080;13.642;2023-07-30T05:43:47;17.90;99.90
74488;DHT22;63019;51.080;13.642;2023-07-30T05:44:50;18.00;99.90
74488;DHT22;63019;51.080;13.642;2023-07-30T05:45:52;18.00;99.90
74488;DHT22;63019;51.080;13.642;2023-07-30T05:46:54;18.00;99.90
74488;DHT22;63019;51.080;13.642;2023-07-30T05:47:55;18.10;99.90
74488;DHT22;63019;51.080;13.642;2023-07-30T05:48:57;18.10;99.90
74488;DHT22;63019;51.080;13.642;2023-07-30T05:49:59;18.10;99.90
74488;DHT22;63019;51.080;13.642;2023-07-30T05:51:01;18.20;99.90
74488;DHT22;63019;51.080;13.642;2023-07-30T05:52:03;18.10;99.90
74488;DHT22;63019;51.080;13.642;2023-07-30T05:53:05;18.20;99.90
74488;DHT22;63019;51.080;13.642;2023-07-30T05:54:07;18.20;99.90
74488;DHT22;63019;51.080;13.642;2023-07-30T05:55:09;18.20;99.90
74488;DHT22;63019;51.080;13.642;2023-07-30T05:56:11;18.20;99.90
74488;DHT22;63019;51.080;13.642;2023-07-30T05:57:15;18.20;99.90
74488;DHT22;63019;51.080;13.642;2023-07-30T05:58:20;18.20;99.90
74488;DHT22;63019;51.080;13.642;2023-07-30T05:59:22;18.20;99.90
74488;DHT22;63019;51.080;13.642;2023-07-30T06:00:24;18.30;99.90
74488;DHT22;63019;51.080;13.642;2023-07-30T06:01:26;18.20;99.90
74488;DHT22;63019;51.080;13.642;2023-07-30T06:02:29;18.20;99.90
74488;DHT22;63019;51.080;13.642;2023-07-30T06:03:30;18.30;99.90
74488;DHT22;63019;51.080;13.642;2023-07-30T06:04:32;18.30;99.90
74488;DHT22;63019;51.080;13.642;2023-07-30T06:05:41;18.30;99.90
74488;DHT22;63019;51.080;13.642;2023-07-30T06:06:43;18.30;99.90
74488;DHT22;63019;51.080;13.642;2023-07-30T06:07:46;18.40;99.90
74488;DHT22;63019;51.080;13.642;2023-07-30T06:08:49;18.40;99.90
74488;DHT22;63019;51.080;13.642;2023-07-30T06:09:50;18.40;99.90
74488;DHT22;63019;51.080;13.642;2023-07-30T06:10:52;18.50;99.90
74488;DHT22;63019;51.080;13.642;2023-07-30T06:11:57;18.50;99.90
74488;DHT22;63019;51.080;13.642;2023-07-30T06:12:59;18.50;99.90
74488;DHT22;63019;51.080;13.642;2023-07-30T06:14:01;18.50;99.90
74488;DHT22;63019;51.080;13.642;2023-07-30T06:15:06;18.60;99.90
74488;DHT22;63019;51.080;13.642;2023-07-30T06:16:10;18.60;99.90
74488;DHT22;63019;51.080;13.642;2023-07-30T06:17:12;18.60;99.90
74488;DHT22;63019;51.080;13.642;2023-07-30T06:18:14;18.70;99.90
74488;DHT22;63019;51.080;13.642;2023-07-30T06:19:16;18.70;99.90
74488;DHT22;63019;51.080;13.642;2023-07-30T06:20:18;18.70;99.90
74488;DHT22;63019;51.080;13.642;2023-07-30T06:21:20;18.70;99.90
74488;DHT22;63019;51.080;13.642;2023-07-30T06:22:22;18.70;99.90
74488;DHT22;63019;51.080;13.642;2023-07-30T06:23:24;18.80;99.90
74488;DHT22;63019;51.080;13.642;2023-07-30T06:24:26;18.80;99.90
74488;DHT22;63019;51.080;13.642;2023-07-30T06:25:28;18.80;99.90
74488;DHT22;63019;51.080;13.642;2023-07-30T06:26:30;18.90;99.90
74488;DHT22;63019;51.080;13.642;2023-07-30T06:27:31;18.90;99.90